createdAt,value
2019-03-22T00:00:41.275Z,1021.56
2019-03-22T00:01:41.276Z,1021.59
2019-03-22T00:02:41.344Z,1021.62
2019-03-22T00:03:41.279Z,1021.60
2019-03-22T00:04:41.348Z,1021.59
2019-03-22T00:05:41.320Z,1021.55
2019-03-22T00:06:41.314Z,1021.54
2019-03-22T00:07:41.248Z,1021.54
2019-03-22T00:08:41.329Z,1021.55
2019-03-22T00:09:41.347Z,1021.57
2019-03-22T00:10:41.329Z,1021.57
2019-03-22T00:11:41.300Z,1021.53
2019-03-22T00:12:41.326Z,1021.54
2019-03-22T00:13:41.366Z,1021.56
2019-03-22T00:14:41.372Z,1021.49
2019-03-22T00:15:41.323Z,1021.50
2019-03-22T00:16:41.351Z,1021.49
2019-03-22T00:17:41.317Z,1021.50
2019-03-22T00:18:41.264Z,1021.51
2019-03-22T00:19:41.294Z,1021.52
2019-03-22T00:20:41.421Z,1021.56
2019-03-22T00:21:41.378Z,1021.53
2019-03-22T00:22:41.395Z,1021.55
2019-03-22T00:23:41.391Z,1021.55
2019-03-22T00:24:41.378Z,1021.51
2019-03-22T00:25:41.290Z,1021.53
2019-03-22T00:26:41.297Z,1021.55
2019-03-22T00:27:41.305Z,1021.52
2019-03-22T00:28:41.362Z,1021.51
2019-03-22T00:29:41.300Z,1021.45
2019-03-22T00:30:41.380Z,1021.49
2019-03-22T00:31:41.300Z,1021.46
2019-03-22T00:32:41.365Z,1021.45
2019-03-22T00:33:41.364Z,1021.46
2019-03-22T00:34:41.302Z,1021.48
2019-03-22T00:35:41.227Z,1021.46
2019-03-22T00:36:41.416Z,1021.50
2019-03-22T00:37:41.302Z,1021.43
2019-03-22T00:38:41.297Z,1021.42
2019-03-22T00:39:41.355Z,1021.44
2019-03-22T00:40:41.329Z,1021.43
2019-03-22T00:41:41.356Z,1021.49
2019-03-22T00:42:41.243Z,1021.48
2019-03-22T00:43:41.238Z,1021.49
2019-03-22T00:44:41.363Z,1021.49
2019-03-22T00:45:41.335Z,1021.49
2019-03-22T00:46:41.297Z,1021.52
2019-03-22T00:47:41.374Z,1021.48
2019-03-22T00:48:41.332Z,1021.46
2019-03-22T00:49:41.346Z,1021.44
2019-03-22T00:50:41.411Z,1021.45
2019-03-22T00:51:41.380Z,1021.44
2019-03-22T00:52:41.347Z,1021.42
2019-03-22T00:53:41.377Z,1021.43
2019-03-22T00:54:41.359Z,1021.38
2019-03-22T00:55:41.343Z,1021.38
2019-03-22T00:56:41.411Z,1021.39
2019-03-22T00:57:41.408Z,1021.38
2019-03-22T00:58:41.363Z,1021.37
2019-03-22T00:59:41.409Z,1021.44
2019-03-22T01:00:41.418Z,1021.38
2019-03-22T01:01:41.348Z,1021.38
2019-03-22T01:02:41.413Z,1021.38
2019-03-22T01:03:41.408Z,1021.38
2019-03-22T01:04:41.404Z,1021.41
2019-03-22T01:05:41.319Z,1021.41
2019-03-22T01:06:41.387Z,1021.37
2019-03-22T01:07:41.319Z,1021.41
2019-03-22T01:08:41.327Z,1021.39
2019-03-22T01:09:41.329Z,1021.35
2019-03-22T01:10:41.389Z,1021.29
2019-03-22T01:11:41.389Z,1021.29
2019-03-22T01:12:41.396Z,1021.26
2019-03-22T01:13:41.327Z,1021.27
2019-03-22T01:14:41.405Z,1021.27
2019-03-22T01:15:41.328Z,1021.30
2019-03-22T01:16:41.392Z,1021.30
2019-03-22T01:17:41.433Z,1021.32
2019-03-22T01:18:41.520Z,1021.33
2019-03-22T01:19:41.336Z,1021.32
2019-03-22T01:20:41.418Z,1021.31
2019-03-22T01:21:41.355Z,1021.31
2019-03-22T01:22:41.417Z,1021.33
2019-03-22T01:23:41.415Z,1021.36
2019-03-22T01:24:41.420Z,1021.34
2019-03-22T01:25:41.480Z,1021.31
2019-03-22T01:26:41.431Z,1021.33
2019-03-22T01:27:41.650Z,1021.31
2019-03-22T01:28:41.355Z,1021.29
2019-03-22T01:29:41.419Z,1021.31
2019-03-22T01:30:41.369Z,1021.33
2019-03-22T01:31:41.316Z,1021.31
2019-03-22T01:32:41.304Z,1021.30
2019-03-22T01:33:41.380Z,1021.39
2019-03-22T01:34:41.365Z,1021.37
2019-03-22T01:35:41.415Z,1021.35
2019-03-22T01:36:41.375Z,1021.34
2019-03-22T01:37:41.450Z,1021.34
2019-03-22T01:38:41.373Z,1021.31
2019-03-22T01:39:41.414Z,1021.31
2019-03-22T01:40:41.430Z,1021.29
2019-03-22T01:41:41.384Z,1021.29
2019-03-22T01:42:41.387Z,1021.33
2019-03-22T01:43:41.417Z,1021.39
2019-03-22T01:44:41.328Z,1021.32
2019-03-22T01:45:41.425Z,1021.31
2019-03-22T01:46:41.437Z,1021.30
2019-03-22T01:47:41.435Z,1021.30
2019-03-22T01:48:41.447Z,1021.34
2019-03-22T01:49:41.438Z,1021.34
2019-03-22T01:50:41.448Z,1021.30
2019-03-22T01:51:41.437Z,1021.36
2019-03-22T01:52:41.388Z,1021.33
2019-03-22T01:53:41.372Z,1021.34
2019-03-22T01:54:41.329Z,1021.30
2019-03-22T01:55:41.447Z,1021.31
2019-03-22T01:56:41.388Z,1021.29
2019-03-22T01:57:52.562Z,1021.30
2019-03-22T01:58:41.392Z,1021.27
2019-03-22T01:59:41.441Z,1021.29
2019-03-22T02:00:41.323Z,1021.29
2019-03-22T02:01:41.457Z,1021.28
2019-03-22T02:02:41.330Z,1021.28
2019-03-22T02:03:41.470Z,1021.25
2019-03-22T02:04:41.396Z,1021.23
2019-03-22T02:05:41.368Z,1021.19
2019-03-22T02:06:41.435Z,1021.18
2019-03-22T02:07:41.496Z,1021.17
2019-03-22T02:08:41.366Z,1021.10
2019-03-22T02:09:41.432Z,1021.12
2019-03-22T02:10:41.395Z,1021.14
2019-03-22T02:11:41.433Z,1021.17
2019-03-22T02:12:41.435Z,1021.11
2019-03-22T02:13:41.436Z,1021.17
2019-03-22T02:14:41.441Z,1021.18
2019-03-22T02:15:41.391Z,1021.15
2019-03-22T02:16:41.466Z,1021.16
2019-03-22T02:17:41.474Z,1021.14
2019-03-22T02:18:41.402Z,1021.14
2019-03-22T02:19:41.463Z,1021.14
2019-03-22T02:20:41.471Z,1021.07
2019-03-22T02:21:41.398Z,1021.10
2019-03-22T02:22:41.425Z,1021.09
2019-03-22T02:23:41.417Z,1021.09
2019-03-22T02:24:41.413Z,1021.10
2019-03-22T02:25:41.303Z,1021.09
2019-03-22T02:26:41.354Z,1021.06
2019-03-22T02:27:41.393Z,1021.04
2019-03-22T02:28:41.373Z,1021.03
2019-03-22T02:29:41.392Z,1021.07
2019-03-22T02:30:41.435Z,1021.02
2019-03-22T02:31:41.430Z,1021.06
2019-03-22T02:32:41.347Z,1021.02
2019-03-22T02:33:41.341Z,1021.06
2019-03-22T02:34:41.357Z,1021.05
2019-03-22T02:35:41.359Z,1021.04
2019-03-22T02:36:41.357Z,1021.07
2019-03-22T02:37:41.335Z,1021.06
2019-03-22T02:38:41.355Z,1021.07
2019-03-22T02:39:41.591Z,1021.09
2019-03-22T02:40:41.341Z,1021.11
2019-03-22T02:41:41.320Z,1021.13
2019-03-22T02:42:41.441Z,1021.13
2019-03-22T02:43:41.316Z,1021.08
2019-03-22T02:44:41.307Z,1021.13
2019-03-22T02:45:41.401Z,1021.07
2019-03-22T02:46:41.469Z,1021.06
2019-03-22T02:47:41.526Z,1021.12
2019-03-22T02:48:41.462Z,1021.09
2019-03-22T02:49:41.464Z,1021.11
2019-03-22T02:50:41.475Z,1021.07
2019-03-22T02:51:41.466Z,1021.08
2019-03-22T02:52:41.435Z,1021.05
2019-03-22T02:53:41.351Z,1021.08
2019-03-22T02:54:41.395Z,1021.02
2019-03-22T02:55:41.549Z,1021.02
2019-03-22T02:56:41.465Z,1021.03
2019-03-22T02:57:41.473Z,1020.99
2019-03-22T02:58:41.477Z,1020.99
2019-03-22T02:59:41.495Z,1021.00
2019-03-22T03:00:41.473Z,1020.95
2019-03-22T03:01:41.469Z,1021.00
2019-03-22T03:02:41.468Z,1021.00
2019-03-22T03:03:41.529Z,1020.99
2019-03-22T03:04:41.434Z,1021.04
2019-03-22T03:05:41.473Z,1021.08
2019-03-22T03:06:41.413Z,1021.04
2019-03-22T03:07:41.428Z,1021.03
2019-03-22T03:08:41.487Z,1021.01
2019-03-22T03:09:41.417Z,1021.04
2019-03-22T03:10:41.402Z,1021.02
2019-03-22T03:11:41.408Z,1021.00
2019-03-22T03:12:41.449Z,1021.01
2019-03-22T03:13:41.490Z,1021.01
2019-03-22T03:14:41.477Z,1021.08
2019-03-22T03:15:41.512Z,1021.06
2019-03-22T03:16:41.506Z,1021.07
2019-03-22T03:17:41.446Z,1021.05
2019-03-22T03:18:41.503Z,1021.07
2019-03-22T03:19:41.505Z,1021.01
2019-03-22T03:20:41.512Z,1021.03
2019-03-22T03:21:41.480Z,1021.08
2019-03-22T03:22:41.494Z,1021.06
2019-03-22T03:23:41.509Z,1021.10
2019-03-22T03:24:41.439Z,1021.09
2019-03-22T03:25:41.498Z,1021.06
2019-03-22T03:26:41.565Z,1021.09
2019-03-22T03:27:41.443Z,1021.06
2019-03-22T03:28:41.448Z,1021.03
2019-03-22T03:29:41.438Z,1021.05
2019-03-22T03:30:41.436Z,1021.03
2019-03-22T03:31:41.466Z,1021.04
2019-03-22T03:32:41.522Z,1021.08
2019-03-22T03:33:41.510Z,1021.00
2019-03-22T03:34:41.474Z,1021.00
2019-03-22T03:35:41.504Z,1020.93
2019-03-22T03:36:41.532Z,1020.93
2019-03-22T03:37:41.494Z,1020.93
2019-03-22T03:38:41.464Z,1020.94
2019-03-22T03:39:41.506Z,1020.97
2019-03-22T03:40:41.456Z,1020.99
2019-03-22T03:41:41.447Z,1021.04
2019-03-22T03:42:41.456Z,1021.08
2019-03-22T03:43:41.499Z,1021.11
2019-03-22T03:44:41.523Z,1021.12
2019-03-22T03:45:41.497Z,1021.10
2019-03-22T03:46:41.366Z,1021.14
2019-03-22T03:47:41.427Z,1021.10
2019-03-22T03:48:41.463Z,1021.11
2019-03-22T03:49:41.467Z,1021.10
2019-03-22T03:50:41.531Z,1021.09
2019-03-22T03:51:41.430Z,1021.06
2019-03-22T03:52:41.503Z,1021.09
2019-03-22T03:53:41.484Z,1021.09
2019-03-22T03:54:41.464Z,1021.08
2019-03-22T03:55:41.445Z,1021.06
2019-03-22T03:56:41.447Z,1021.08
2019-03-22T03:57:41.502Z,1021.07
2019-03-22T03:58:52.133Z,1021.09
2019-03-22T03:59:41.439Z,1021.09
2019-03-22T04:00:41.508Z,1021.08
2019-03-22T04:01:41.521Z,1021.09
2019-03-22T04:02:41.449Z,1021.10
2019-03-22T04:03:41.443Z,1021.12
2019-03-22T04:04:41.448Z,1021.06
2019-03-22T04:05:41.517Z,1021.07
2019-03-22T04:06:41.515Z,1021.04
2019-03-22T04:07:41.422Z,1021.06
2019-03-22T04:08:41.451Z,1021.07
2019-03-22T04:09:41.508Z,1021.06
2019-03-22T04:10:41.427Z,1021.04
2019-03-22T04:11:41.391Z,1021.02
2019-03-22T04:12:41.431Z,1021.01
2019-03-22T04:13:41.508Z,1020.99
2019-03-22T04:14:41.512Z,1020.98
2019-03-22T04:15:41.461Z,1020.99
2019-03-22T04:16:41.459Z,1020.97
2019-03-22T04:17:41.531Z,1020.98
2019-03-22T04:18:41.562Z,1020.99
2019-03-22T04:19:41.525Z,1020.98
2019-03-22T04:20:41.458Z,1021.01
2019-03-22T04:21:41.527Z,1020.96
2019-03-22T04:22:41.466Z,1020.99
2019-03-22T04:23:41.427Z,1020.97
2019-03-22T04:24:41.533Z,1021.00
2019-03-22T04:25:41.569Z,1021.01
2019-03-22T04:26:41.604Z,1021.02
2019-03-22T04:27:41.489Z,1021.04
2019-03-22T04:28:41.565Z,1021.10
2019-03-22T04:29:41.534Z,1021.05
2019-03-22T04:30:41.490Z,1021.02
2019-03-22T04:31:41.558Z,1021.10
2019-03-22T04:32:41.493Z,1021.04
2019-03-22T04:33:41.509Z,1021.02
2019-03-22T04:34:41.562Z,1021.02
2019-03-22T04:35:41.482Z,1021.02
2019-03-22T04:36:41.439Z,1020.96
2019-03-22T04:37:41.504Z,1020.95
2019-03-22T04:38:41.610Z,1021.00
2019-03-22T04:39:41.563Z,1021.01
2019-03-22T04:40:41.579Z,1021.04
2019-03-22T04:41:41.445Z,1021.08
2019-03-22T04:42:41.605Z,1021.04
2019-03-22T04:43:41.550Z,1021.07
2019-03-22T04:44:41.443Z,1021.08
2019-03-22T04:45:41.570Z,1021.06
2019-03-22T04:46:41.575Z,1021.05
2019-03-22T04:47:41.448Z,1021.05
2019-03-22T04:48:41.514Z,1021.03
2019-03-22T04:49:41.462Z,1021.03
2019-03-22T04:50:41.515Z,1021.04
2019-03-22T04:51:41.544Z,1021.01
2019-03-22T04:52:41.559Z,1021.08
2019-03-22T04:53:41.592Z,1021.00
2019-03-22T04:54:41.547Z,1021.01
2019-03-22T04:55:41.447Z,1021.01
2019-03-22T04:56:41.523Z,1020.99
2019-03-22T04:57:41.579Z,1020.91
2019-03-22T04:58:41.455Z,1020.92
2019-03-22T04:59:41.530Z,1020.87
2019-03-22T05:00:41.606Z,1020.87
2019-03-22T05:01:41.515Z,1020.87
2019-03-22T05:02:41.495Z,1020.85
2019-03-22T05:03:41.588Z,1020.88
2019-03-22T05:04:41.537Z,1020.87
2019-03-22T05:05:41.458Z,1020.88
2019-03-22T05:06:41.559Z,1020.85
2019-03-22T05:07:41.523Z,1020.88
2019-03-22T05:08:41.589Z,1020.93
2019-03-22T05:09:41.540Z,1020.88
2019-03-22T05:10:41.618Z,1020.91
2019-03-22T05:11:41.518Z,1020.91
2019-03-22T05:12:41.522Z,1020.98
2019-03-22T05:13:41.525Z,1020.96
2019-03-22T05:14:41.520Z,1020.94
2019-03-22T05:15:41.496Z,1020.95
2019-03-22T05:16:41.496Z,1020.97
2019-03-22T05:17:41.566Z,1021.00
2019-03-22T05:18:43.937Z,1021.02
2019-03-22T05:19:41.502Z,1021.05
2019-03-22T05:20:41.570Z,1021.05
2019-03-22T05:21:41.507Z,1021.11
2019-03-22T05:22:41.497Z,1021.13
2019-03-22T05:23:41.568Z,1021.10
2019-03-22T05:24:41.510Z,1021.11
2019-03-22T05:25:41.509Z,1021.11
2019-03-22T05:26:41.534Z,1021.12
2019-03-22T05:27:41.506Z,1021.10
2019-03-22T05:28:41.478Z,1021.10
2019-03-22T05:29:41.517Z,1021.10
2019-03-22T05:30:41.480Z,1021.14
2019-03-22T05:31:41.483Z,1021.12
2019-03-22T05:32:41.510Z,1021.13
2019-03-22T05:33:41.486Z,1021.16
2019-03-22T05:34:41.614Z,1021.16
2019-03-22T05:35:41.547Z,1021.12
2019-03-22T05:36:41.611Z,1021.11
2019-03-22T05:37:41.607Z,1021.13
2019-03-22T05:38:41.580Z,1021.17
2019-03-22T05:39:41.622Z,1021.20
2019-03-22T05:40:41.598Z,1021.20
2019-03-22T05:41:41.566Z,1021.23
2019-03-22T05:42:41.608Z,1021.21
2019-03-22T05:43:41.592Z,1021.20
2019-03-22T05:44:41.598Z,1021.18
2019-03-22T05:45:41.524Z,1021.20
2019-03-22T05:46:41.610Z,1021.23
2019-03-22T05:47:41.600Z,1021.19
2019-03-22T05:48:41.546Z,1021.17
2019-03-22T05:49:41.597Z,1021.19
2019-03-22T05:50:41.616Z,1021.24
2019-03-22T05:51:41.605Z,1021.22
2019-03-22T05:52:41.540Z,1021.19
2019-03-22T05:53:41.495Z,1021.23
2019-03-22T05:54:41.603Z,1021.23
2019-03-22T05:55:41.451Z,1021.30
2019-03-22T05:56:41.513Z,1021.27
2019-03-22T05:57:41.541Z,1021.31
2019-03-22T05:58:41.590Z,1021.34
2019-03-22T05:59:42.741Z,1021.35
2019-03-22T06:00:41.592Z,1021.34
2019-03-22T06:01:41.584Z,1021.36
2019-03-22T06:02:41.593Z,1021.37
2019-03-22T06:03:41.581Z,1021.41
2019-03-22T06:04:41.519Z,1021.38
2019-03-22T06:05:41.584Z,1021.37
2019-03-22T06:06:41.562Z,1021.37
2019-03-22T06:07:41.599Z,1021.40
2019-03-22T06:08:41.496Z,1021.39
2019-03-22T06:09:41.599Z,1021.37
2019-03-22T06:10:41.505Z,1021.40
2019-03-22T06:11:41.570Z,1021.39
2019-03-22T06:12:41.504Z,1021.48
2019-03-22T06:13:44.252Z,1021.48
2019-03-22T06:14:41.632Z,1021.48
2019-03-22T06:15:41.619Z,1021.52
2019-03-22T06:16:41.549Z,1021.50
2019-03-22T06:17:51.233Z,1021.49
2019-03-22T06:18:41.619Z,1021.49
2019-03-22T06:19:41.624Z,1021.56
2019-03-22T06:20:41.630Z,1021.54
2019-03-22T06:21:41.618Z,1021.55
2019-03-22T06:22:41.588Z,1021.61
2019-03-22T06:23:41.546Z,1021.61
2019-03-22T06:24:41.550Z,1021.63
2019-03-22T06:25:41.592Z,1021.64
2019-03-22T06:26:41.612Z,1021.64
2019-03-22T06:27:41.552Z,1021.62
2019-03-22T06:28:41.578Z,1021.63
2019-03-22T06:29:53.390Z,1021.64
2019-03-22T06:30:41.597Z,1021.71
2019-03-22T06:31:41.608Z,1021.70
2019-03-22T06:32:41.613Z,1021.74
2019-03-22T06:33:41.519Z,1021.79
2019-03-22T06:34:41.583Z,1021.79
2019-03-22T06:35:41.560Z,1021.76
2019-03-22T06:36:41.572Z,1021.76
2019-03-22T06:37:41.633Z,1021.76
2019-03-22T06:38:41.625Z,1021.77
2019-03-22T06:39:41.546Z,1021.70
2019-03-22T06:40:41.564Z,1021.78
2019-03-22T06:41:41.562Z,1021.76
2019-03-22T06:42:41.645Z,1021.76
2019-03-22T06:43:41.583Z,1021.74
2019-03-22T06:44:41.589Z,1021.76
2019-03-22T06:45:41.526Z,1021.72
2019-03-22T06:46:41.575Z,1021.74
2019-03-22T06:47:41.629Z,1021.75
2019-03-22T06:48:41.592Z,1021.71
2019-03-22T06:49:41.536Z,1021.66
2019-03-22T06:50:41.566Z,1021.65
2019-03-22T06:51:41.567Z,1021.66
2019-03-22T06:52:41.646Z,1021.70
2019-03-22T06:53:41.583Z,1021.68
2019-03-22T06:54:41.650Z,1021.65
2019-03-22T06:55:41.582Z,1021.67
2019-03-22T06:56:41.714Z,1021.67
2019-03-22T06:57:41.588Z,1021.62
2019-03-22T06:58:41.593Z,1021.59
2019-03-22T06:59:41.540Z,1021.63
2019-03-22T07:00:41.543Z,1021.60
2019-03-22T07:01:41.645Z,1021.62
2019-03-22T07:02:41.650Z,1021.58
2019-03-22T07:03:41.637Z,1021.55
2019-03-22T07:04:41.593Z,1021.60
2019-03-22T07:05:41.713Z,1021.61
2019-03-22T07:06:41.581Z,1021.64
2019-03-22T07:07:41.652Z,1021.61
2019-03-22T07:08:41.577Z,1021.59
2019-03-22T07:09:41.586Z,1021.65
2019-03-22T07:10:41.655Z,1021.67
2019-03-22T07:11:42.025Z,1021.65
2019-03-22T07:12:41.583Z,1021.67
2019-03-22T07:13:41.660Z,1021.68
2019-03-22T07:14:41.616Z,1021.71
2019-03-22T07:15:41.584Z,1021.72
2019-03-22T07:16:41.586Z,1021.75
2019-03-22T07:17:41.716Z,1021.81
2019-03-22T07:18:41.587Z,1021.79
2019-03-22T07:19:41.603Z,1021.77
2019-03-22T07:20:41.599Z,1021.79
2019-03-22T07:21:41.632Z,1021.77
2019-03-22T07:22:41.663Z,1021.80
2019-03-22T07:23:41.656Z,1021.79
2019-03-22T07:24:41.618Z,1021.81
2019-03-22T07:25:41.610Z,1021.82
2019-03-22T07:26:41.666Z,1021.80
2019-03-22T07:27:41.616Z,1021.82
2019-03-22T07:28:41.670Z,1021.83
2019-03-22T07:29:41.672Z,1021.85
2019-03-22T07:30:41.675Z,1021.82
2019-03-22T07:31:41.605Z,1021.83
2019-03-22T07:32:41.679Z,1021.83
2019-03-22T07:33:41.603Z,1021.79
2019-03-22T07:34:41.672Z,1021.74
2019-03-22T07:35:41.678Z,1021.71
2019-03-22T07:36:41.617Z,1021.74
2019-03-22T07:37:41.677Z,1021.72
2019-03-22T07:38:41.674Z,1021.66
2019-03-22T07:39:41.691Z,1021.69
2019-03-22T07:40:41.620Z,1021.71
2019-03-22T07:41:41.679Z,1021.72
2019-03-22T07:42:41.610Z,1021.70
2019-03-22T07:43:41.615Z,1021.70
2019-03-22T07:44:41.685Z,1021.71
2019-03-22T07:45:41.606Z,1021.71
2019-03-22T07:46:41.687Z,1021.71
2019-03-22T07:47:41.690Z,1021.69
2019-03-22T07:48:41.683Z,1021.67
2019-03-22T07:49:41.613Z,1021.70
2019-03-22T07:50:41.671Z,1021.68
2019-03-22T07:51:41.686Z,1021.73
2019-03-22T07:52:41.629Z,1021.73
2019-03-22T07:53:41.689Z,1021.79
2019-03-22T07:54:41.617Z,1021.76
2019-03-22T07:55:41.697Z,1021.78
2019-03-22T07:56:41.613Z,1021.79
2019-03-22T07:57:41.608Z,1021.84
2019-03-22T07:58:41.575Z,1021.81
2019-03-22T07:59:41.671Z,1021.82
2019-03-22T08:00:41.583Z,1021.77
2019-03-22T08:01:41.667Z,1021.72
2019-03-22T08:02:41.681Z,1021.71
2019-03-22T08:03:41.637Z,1021.71
2019-03-22T08:04:41.675Z,1021.69
2019-03-22T08:05:51.008Z,1021.64
2019-03-22T08:06:41.613Z,1021.65
2019-03-22T08:07:41.611Z,1021.67
2019-03-22T08:08:41.685Z,1021.67
2019-03-22T08:09:41.689Z,1021.66
2019-03-22T08:10:41.715Z,1021.64
2019-03-22T08:11:41.735Z,1021.61
2019-03-22T08:12:41.624Z,1021.63
2019-03-22T08:13:41.689Z,1021.63
2019-03-22T08:14:41.666Z,1021.64
2019-03-22T08:15:41.707Z,1021.63
2019-03-22T08:16:41.631Z,1021.63
2019-03-22T08:17:41.707Z,1021.64
2019-03-22T08:18:41.657Z,1021.64
2019-03-22T08:19:41.673Z,1021.63
2019-03-22T08:20:41.722Z,1021.63
2019-03-22T08:21:41.712Z,1021.63
2019-03-22T08:22:41.715Z,1021.60
2019-03-22T08:23:41.749Z,1021.66
2019-03-22T08:24:41.750Z,1021.63
2019-03-22T08:25:43.555Z,1021.64
2019-03-22T08:26:41.710Z,1021.62
2019-03-22T08:27:41.666Z,1021.62
2019-03-22T08:28:41.669Z,1021.62
2019-03-22T08:29:41.680Z,1021.59
2019-03-22T08:30:43.285Z,1021.55
2019-03-22T08:31:41.670Z,1021.51
2019-03-22T08:32:41.710Z,1021.54
2019-03-22T08:33:41.644Z,1021.56
2019-03-22T08:34:41.656Z,1021.59
2019-03-22T08:35:41.740Z,1021.54
2019-03-22T08:36:41.617Z,1021.56
2019-03-22T08:37:52.035Z,1021.53
2019-03-22T08:38:41.739Z,1021.51
2019-03-22T08:39:41.755Z,1021.49
2019-03-22T08:40:41.767Z,1021.48
2019-03-22T08:41:41.733Z,1021.49
2019-03-22T08:42:41.752Z,1021.50
2019-03-22T08:43:41.739Z,1021.49
2019-03-22T08:44:41.659Z,1021.47
2019-03-22T08:45:41.726Z,1021.48
2019-03-22T08:46:41.680Z,1021.41
2019-03-22T08:47:41.746Z,1021.40
2019-03-22T08:48:41.653Z,1021.38
2019-03-22T08:49:41.882Z,1021.34
2019-03-22T08:50:41.725Z,1021.34
2019-03-22T08:51:41.685Z,1021.35
2019-03-22T08:52:41.685Z,1021.32
2019-03-22T08:53:54.365Z,1021.35
2019-03-22T08:54:41.666Z,1021.43
2019-03-22T08:55:41.654Z,1021.41
2019-03-22T08:56:41.778Z,1021.48
2019-03-22T08:57:41.737Z,1021.46
2019-03-22T08:58:41.661Z,1021.51
2019-03-22T08:59:41.666Z,1021.48
2019-03-22T09:00:41.662Z,1021.46
2019-03-22T09:01:41.753Z,1021.46
2019-03-22T09:02:41.742Z,1021.43
2019-03-22T09:03:41.765Z,1021.43
2019-03-22T09:04:41.699Z,1021.37
2019-03-22T09:05:41.735Z,1021.39
2019-03-22T09:06:41.722Z,1021.38
2019-03-22T09:07:41.598Z,1021.40
2019-03-22T09:08:41.687Z,1021.32
2019-03-22T09:09:42.060Z,1021.33
2019-03-22T09:10:41.641Z,1021.30
2019-03-22T09:11:41.686Z,1021.26
2019-03-22T09:12:41.650Z,1021.22
2019-03-22T09:13:41.655Z,1021.18
2019-03-22T09:14:41.721Z,1021.17
2019-03-22T09:15:42.139Z,1021.14
2019-03-22T09:16:41.672Z,1021.13
2019-03-22T09:17:41.672Z,1021.13
2019-03-22T09:18:41.720Z,1021.15
2019-03-22T09:19:41.690Z,1021.13
2019-03-22T09:20:41.761Z,1021.16
2019-03-22T09:21:41.820Z,1021.17
2019-03-22T09:22:41.768Z,1021.18
2019-03-22T09:23:41.676Z,1021.19
2019-03-22T09:24:41.708Z,1021.17
2019-03-22T09:25:41.781Z,1021.14
2019-03-22T09:26:47.520Z,1021.15
2019-03-22T09:27:41.740Z,1021.09
2019-03-22T09:28:41.748Z,1021.10
2019-03-22T09:29:41.681Z,1021.03
2019-03-22T09:30:41.759Z,1021.02
2019-03-22T09:31:41.726Z,1020.96
2019-03-22T09:32:41.701Z,1020.95
2019-03-22T09:33:41.743Z,1020.87
2019-03-22T09:34:41.721Z,1020.87
2019-03-22T09:35:41.762Z,1020.77
2019-03-22T09:36:41.733Z,1020.76
2019-03-22T09:37:41.757Z,1020.75
2019-03-22T09:38:41.756Z,1020.75
2019-03-22T09:39:41.735Z,1020.73
2019-03-22T09:40:41.682Z,1020.70
2019-03-22T09:41:41.759Z,1020.70
2019-03-22T09:42:41.688Z,1020.72
2019-03-22T09:43:41.825Z,1020.69
2019-03-22T09:44:43.781Z,1020.71
2019-03-22T09:45:41.728Z,1020.68
2019-03-22T09:46:41.764Z,1020.69
2019-03-22T09:47:41.732Z,1020.68
2019-03-22T09:48:41.764Z,1020.71
2019-03-22T09:49:41.735Z,1020.70
2019-03-22T09:50:41.765Z,1020.69
2019-03-22T09:51:41.687Z,1020.69
2019-03-22T09:52:41.706Z,1020.66
2019-03-22T09:53:41.776Z,1020.65
2019-03-22T09:54:41.691Z,1020.67
2019-03-22T09:55:41.771Z,1020.69
2019-03-22T09:56:46.758Z,1020.64
2019-03-22T09:57:41.784Z,1020.64
2019-03-22T09:58:41.771Z,1020.68
2019-03-22T09:59:41.773Z,1020.61
2019-03-22T10:00:41.803Z,1020.61
2019-03-22T10:01:41.728Z,1020.62
2019-03-22T10:02:41.723Z,1020.61
2019-03-22T10:03:42.734Z,1020.58
2019-03-22T10:04:41.799Z,1020.60
2019-03-22T10:05:41.704Z,1020.57
2019-03-22T10:06:41.781Z,1020.55
2019-03-22T10:07:41.781Z,1020.51
2019-03-22T10:08:41.751Z,1020.50
2019-03-22T10:09:41.746Z,1020.48
2019-03-22T10:10:41.781Z,1020.43
2019-03-22T10:11:41.781Z,1020.43
2019-03-22T10:12:41.766Z,1020.43
2019-03-22T10:13:41.793Z,1020.43
2019-03-22T10:14:41.762Z,1020.40
2019-03-22T10:15:41.754Z,1020.35
2019-03-22T10:16:41.786Z,1020.37
2019-03-22T10:17:41.836Z,1020.37
2019-03-22T10:18:41.852Z,1020.33
2019-03-22T10:19:42.267Z,1020.31
2019-03-22T10:20:41.787Z,1020.31
2019-03-22T10:21:41.815Z,1020.31
2019-03-22T10:22:41.842Z,1020.31
2019-03-22T10:23:41.806Z,1020.31
2019-03-22T10:24:41.737Z,1020.30
2019-03-22T10:25:41.744Z,1020.26
2019-03-22T10:26:41.791Z,1020.26
2019-03-22T10:27:41.813Z,1020.23
2019-03-22T10:28:41.808Z,1020.19
2019-03-22T10:29:41.820Z,1020.15
2019-03-22T10:30:41.872Z,1020.11
2019-03-22T10:31:41.807Z,1020.10
2019-03-22T10:32:41.806Z,1020.07
2019-03-22T10:33:41.786Z,1020.06
2019-03-22T10:34:41.833Z,1020.03
2019-03-22T10:35:41.734Z,1020.06
2019-03-22T10:36:41.715Z,1020.05
2019-03-22T10:37:41.746Z,1020.05
2019-03-22T10:38:41.855Z,1020.11
2019-03-22T10:39:41.723Z,1020.06
2019-03-22T10:40:41.862Z,1020.11
2019-03-22T10:41:41.773Z,1020.06
2019-03-22T10:42:41.793Z,1020.05
2019-03-22T10:43:41.728Z,1020.01
2019-03-22T10:44:41.847Z,1020.03
2019-03-22T10:45:41.722Z,1020.01
2019-03-22T10:46:41.792Z,1020.02
2019-03-22T10:47:41.798Z,1020.03
2019-03-22T10:48:41.753Z,1020.03
2019-03-22T10:49:42.297Z,1020.00
2019-03-22T10:50:41.730Z,1019.98
2019-03-22T10:51:41.737Z,1019.93
2019-03-22T10:52:41.735Z,1019.92
2019-03-22T10:53:41.841Z,1019.88
2019-03-22T10:54:41.729Z,1019.87
2019-03-22T10:55:41.805Z,1019.87
2019-03-22T10:56:41.729Z,1019.85
2019-03-22T10:57:41.727Z,1019.85
2019-03-22T10:58:41.716Z,1019.80
2019-03-22T10:59:41.687Z,1019.86
2019-03-22T11:00:41.683Z,1019.85
2019-03-22T11:01:48.658Z,1019.82
2019-03-22T11:02:41.810Z,1019.80
2019-03-22T11:03:41.762Z,1019.76
2019-03-22T11:04:41.690Z,1019.76
2019-03-22T11:05:41.801Z,1019.74
2019-03-22T11:06:41.745Z,1019.75
2019-03-22T11:07:41.815Z,1019.72
2019-03-22T11:08:41.750Z,1019.74
2019-03-22T11:09:41.853Z,1019.76
2019-03-22T11:10:41.751Z,1019.68
2019-03-22T11:11:41.817Z,1019.67
2019-03-22T11:12:41.742Z,1019.66
2019-03-22T11:13:41.751Z,1019.66
2019-03-22T11:14:41.819Z,1019.62
2019-03-22T11:15:48.407Z,1019.58
2019-03-22T11:16:41.759Z,1019.59
2019-03-22T11:17:41.832Z,1019.54
2019-03-22T11:18:41.836Z,1019.56
2019-03-22T11:19:41.762Z,1019.53
2019-03-22T11:20:41.775Z,1019.54
2019-03-22T11:21:41.778Z,1019.53
2019-03-22T11:22:41.735Z,1019.49
2019-03-22T11:23:41.794Z,1019.45
2019-03-22T11:24:41.856Z,1019.45
2019-03-22T11:25:41.838Z,1019.39
2019-03-22T11:26:41.824Z,1019.42
2019-03-22T11:27:41.841Z,1019.41
2019-03-22T11:28:41.775Z,1019.40
2019-03-22T11:29:41.839Z,1019.41
2019-03-22T11:30:41.767Z,1019.39
2019-03-22T11:31:41.838Z,1019.39
2019-03-22T11:32:41.766Z,1019.35
2019-03-22T11:33:41.854Z,1019.34
2019-03-22T11:34:41.838Z,1019.34
2019-03-22T11:35:41.732Z,1019.31
2019-03-22T11:36:41.844Z,1019.27
2019-03-22T11:37:41.775Z,1019.27
2019-03-22T11:38:41.793Z,1019.27
2019-03-22T11:39:41.782Z,1019.26
2019-03-22T11:40:41.771Z,1019.24
2019-03-22T11:41:41.854Z,1019.22
2019-03-22T11:43:41.782Z,1019.20
2019-03-22T11:44:41.868Z,1019.14
2019-03-22T11:45:41.778Z,1019.12
2019-03-22T11:46:41.779Z,1019.11
2019-03-22T11:47:41.874Z,1019.13
2019-03-22T11:48:41.780Z,1019.10
2019-03-22T11:49:41.798Z,1019.08
2019-03-22T11:50:41.780Z,1019.06
2019-03-22T11:51:41.852Z,1019.04
2019-03-22T11:52:41.876Z,1019.01
2019-03-22T11:53:41.861Z,1019.03
2019-03-22T11:54:41.800Z,1019.02
2019-03-22T11:55:41.787Z,1019.00
2019-03-22T11:56:41.791Z,1018.99
2019-03-22T11:57:41.792Z,1018.95
2019-03-22T11:58:41.831Z,1018.93
2019-03-22T11:59:41.787Z,1018.88
2019-03-22T12:00:41.871Z,1018.87
2019-03-22T12:01:41.829Z,1018.92
2019-03-22T12:02:41.855Z,1018.89
2019-03-22T12:03:41.793Z,1018.84
2019-03-22T12:04:41.858Z,1018.81
2019-03-22T12:05:41.863Z,1018.81
2019-03-22T12:06:41.869Z,1018.81